sensor_id;sensor_type;location;lat;lon;timestamp;P1;durP1;ratioP1;P2;durP2;ratioP2
41883;SDS011;27566;50.930;5.328;2023-06-14T18:10:23;4.07;;;2.53;;
41883;SDS011;27566;50.930;5.328;2023-06-14T18:12:50;10.32;;;2.58;;
41883;SDS011;27566;50.930;5.328;2023-06-14T18:15:16;8.82;;;3.05;;
41883;SDS011;27566;50.930;5.328;2023-06-14T18:17:42;4.45;;;2.22;;
41883;SDS011;27566;50.930;5.328;2023-06-14T18:20:08;4.60;;;2.15;;
41883;SDS011;27566;50.930;5.328;2023-06-14T18:22:34;4.05;;;2.08;;
41883;SDS011;27566;50.930;5.328;2023-06-14T18:25:00;3.53;;;2.08;;
41883;SDS011;27566;50.930;5.328;2023-06-14T18:27:26;7.82;;;2.22;;
41883;SDS011;27566;50.930;5.328;2023-06-14T18:29:52;5.47;;;1.88;;
41883;SDS011;27566;50.930;5.328;2023-06-14T18:32:18;3.28;;;1.92;;
41883;SDS011;27566;50.930;5.328;2023-06-14T18:34:43;3.80;;;2.28;;
41883;SDS011;27566;50.930;5.328;2023-06-14T18:37:09;4.75;;;2.38;;
41883;SDS011;27566;50.930;5.328;2023-06-14T18:39:35;6.38;;;2.90;;
41883;SDS011;27566;50.930;5.328;2023-06-14T18:42:01;4.65;;;1.80;;
41883;SDS011;27566;50.930;5.328;2023-06-14T18:44:29;3.92;;;2.30;;
41883;SDS011;27566;50.930;5.328;2023-06-14T18:46:54;4.30;;;1.90;;
41883;SDS011;27566;50.930;5.328;2023-06-14T18:49:20;2.80;;;2.10;;
41883;SDS011;27566;50.930;5.328;2023-06-14T18:51:46;3.88;;;2.50;;
41883;SDS011;27566;50.930;5.328;2023-06-14T18:54:12;5.45;;;2.05;;
41883;SDS011;27566;50.930;5.328;2023-06-14T18:56:38;7.57;;;2.65;;
41883;SDS011;27566;50.930;5.328;2023-06-14T18:59:04;5.00;;;2.80;;
41883;SDS011;27566;50.930;5.328;2023-06-14T19:01:30;3.38;;;2.22;;
41883;SDS011;27566;50.930;5.328;2023-06-14T19:03:56;4.65;;;2.80;;
41883;SDS011;27566;50.930;5.328;2023-06-14T19:06:22;4.60;;;2.08;;
41883;SDS011;27566;50.930;5.328;2023-06-14T19:08:49;4.13;;;2.22;;
41883;SDS011;27566;50.930;5.328;2023-06-14T19:11:15;9.23;;;2.50;;
41883;SDS011;27566;50.930;5.328;2023-06-14T19:13:41;4.30;;;2.20;;
41883;SDS011;27566;50.930;5.328;2023-06-14T19:16:08;4.78;;;2.50;;
41883;SDS011;27566;50.930;5.328;2023-06-14T19:18:36;7.40;;;3.20;;
41883;SDS011;27566;50.930;5.328;2023-06-14T19:21:02;5.05;;;2.85;;
41883;SDS011;27566;50.930;5.328;2023-06-14T19:23:28;3.47;;;2.17;;
41883;SDS011;27566;50.930;5.328;2023-06-14T19:25:54;4.90;;;2.50;;
41883;SDS011;27566;50.930;5.328;2023-06-14T19:28:19;3.10;;;2.17;;
41883;SDS011;27566;50.930;5.328;2023-06-14T19:30:47;5.65;;;2.80;;
41883;SDS011;27566;50.930;5.328;2023-06-14T19:33:13;5.45;;;2.60;;
41883;SDS011;27566;50.930;5.328;2023-06-14T19:35:41;5.13;;;2.50;;
41883;SDS011;27566;50.930;5.328;2023-06-14T19:38:08;5.88;;;2.72;;
41883;SDS011;27566;50.930;5.328;2023-06-14T19:40:37;3.78;;;2.08;;
41883;SDS011;27566;50.930;5.328;2023-06-14T19:43:04;5.25;;;2.60;;
41883;SDS011;27566;50.930;5.328;2023-06-14T19:45:30;5.97;;;2.38;;
41883;SDS011;27566;50.930;5.328;2023-06-14T19:47:56;4.82;;;2.80;;
41883;SDS011;27566;50.930;5.328;2023-06-14T19:50:22;4.22;;;2.50;;
41883;SDS011;27566;50.930;5.328;2023-06-14T19:52:48;7.38;;;3.15;;
41883;SDS011;27566;50.930;5.328;2023-06-14T19:55:14;5.55;;;3.03;;
41883;SDS011;27566;50.930;5.328;2023-06-14T19:57:40;4.90;;;2.92;;
41883;SDS011;27566;50.930;5.328;2023-06-14T20:00:06;4.65;;;2.72;;
41883;SDS011;27566;50.930;5.328;2023-06-14T20:02:33;4.45;;;2.38;;
41883;SDS011;27566;50.930;5.328;2023-06-14T20:05:00;4.85;;;2.60;;
41883;SDS011;27566;50.930;5.328;2023-06-14T20:07:26;5.63;;;2.97;;
41883;SDS011;27566;50.930;5.328;2023-06-14T20:09:52;6.10;;;2.90;;
41883;SDS011;27566;50.930;5.328;2023-06-14T20:12:20;7.00;;;3.15;;
41883;SDS011;27566;50.930;5.328;2023-06-14T20:14:46;5.50;;;3.05;;
41883;SDS011;27566;50.930;5.328;2023-06-14T20:17:12;5.53;;;2.72;;
41883;SDS011;27566;50.930;5.328;2023-06-14T20:19:39;12.80;;;2.78;;
41883;SDS011;27566;50.930;5.328;2023-06-14T20:22:05;5.68;;;2.75;;
41883;SDS011;27566;50.930;5.328;2023-06-14T20:24:31;7.20;;;2.92;;
41883;SDS011;27566;50.930;5.328;2023-06-14T20:26:57;3.50;;;2.40;;
41883;SDS011;27566;50.930;5.328;2023-06-14T20:29:23;5.45;;;2.92;;
41883;SDS011;27566;50.930;5.328;2023-06-14T20:31:49;8.73;;;3.03;;
41883;SDS011;27566;50.930;5.328;2023-06-14T20:34:15;7.82;;;3.78;;
41883;SDS011;27566;50.930;5.328;2023-06-14T20:36:41;5.10;;;3.08;;
41883;SDS011;27566;50.930;5.328;2023-06-14T20:39:07;5.47;;;3.05;;
41883;SDS011;27566;50.930;5.328;2023-06-14T20:41:33;4.50;;;3.00;;
41883;SDS011;27566;50.930;5.328;2023-06-14T20:44:00;4.00;;;2.95;;
41883;SDS011;27566;50.930;5.328;2023-06-14T20:46:26;4.68;;;2.78;;
41883;SDS011;27566;50.930;5.328;2023-06-14T20:48:57;4.32;;;2.70;;
41883;SDS011;27566;50.930;5.328;2023-06-14T20:51:23;8.75;;;3.90;;
41883;SDS011;27566;50.930;5.328;2023-06-14T20:53:49;3.50;;;2.90;;
41883;SDS011;27566;50.930;5.328;2023-06-14T20:56:17;7.22;;;3.65;;
41883;SDS011;27566;50.930;5.328;2023-06-14T20:58:43;6.07;;;3.05;;
41883;SDS011;27566;50.930;5.328;2023-06-14T21:01:09;6.28;;;3.45;;
41883;SDS011;27566;50.930;5.328;2023-06-14T21:03:35;5.55;;;2.75;;
41883;SDS011;27566;50.930;5.328;2023-06-14T21:06:01;6.88;;;3.28;;
41883;SDS011;27566;50.930;5.328;2023-06-14T21:08:29;6.22;;;2.92;;
41883;SDS011;27566;50.930;5.328;2023-06-14T21:10:55;6.55;;;3.28;;
41883;SDS011;27566;50.930;5.328;2023-06-14T21:13:23;5.63;;;2.72;;
41883;SDS011;27566;50.930;5.328;2023-06-14T21:15:49;6.18;;;3.15;;
41883;SDS011;27566;50.930;5.328;2023-06-14T21:18:16;4.28;;;2.60;;
41883;SDS011;27566;50.930;5.328;2023-06-14T21:20:42;5.45;;;2.85;;
41883;SDS011;27566;50.930;5.328;2023-06-14T21:23:08;6.40;;;2.72;;
41883;SDS011;27566;50.930;5.328;2023-06-14T21:25:35;7.15;;;3.60;;
41883;SDS011;27566;50.930;5.328;2023-06-14T21:28:01;8.40;;;2.47;;
41883;SDS011;27566;50.930;5.328;2023-06-14T21:30:36;4.10;;;2.92;;
41883;SDS011;27566;50.930;5.328;2023-06-14T21:33:02;6.15;;;2.80;;
41883;SDS011;27566;50.930;5.328;2023-06-14T21:35:32;7.47;;;3.03;;
41883;SDS011;27566;50.930;5.328;2023-06-14T21:37:58;7.13;;;3.40;;
41883;SDS011;27566;50.930;5.328;2023-06-14T21:40:24;4.50;;;3.15;;
41883;SDS011;27566;50.930;5.328;2023-06-14T21:42:50;7.40;;;3.10;;
41883;SDS011;27566;50.930;5.328;2023-06-14T21:45:16;5.45;;;3.08;;
41883;SDS011;27566;50.930;5.328;2023-06-14T21:47:41;5.72;;;2.67;;
41883;SDS011;27566;50.930;5.328;2023-06-14T21:50:07;3.78;;;2.60;;
41883;SDS011;27566;50.930;5.328;2023-06-14T21:52:34;8.93;;;3.38;;
41883;SDS011;27566;50.930;5.328;2023-06-14T21:55:00;4.28;;;2.88;;
41883;SDS011;27566;50.930;5.328;2023-06-14T21:57:26;6.95;;;3.33;;
41883;SDS011;27566;50.930;5.328;2023-06-14T21:59:52;6.45;;;3.42;;
41883;SDS011;27566;50.930;5.328;2023-06-14T22:02:18;6.95;;;3.30;;
41883;SDS011;27566;50.930;5.328;2023-06-14T22:04:44;6.05;;;3.00;;
41883;SDS011;27566;50.930;5.328;2023-06-14T22:07:10;8.40;;;3.33;;
41883;SDS011;27566;50.930;5.328;2023-06-14T22:09:45;5.57;;;3.05;;
41883;SDS011;27566;50.930;5.328;2023-06-14T22:12:13;5.82;;;3.05;;
41883;SDS011;27566;50.930;5.328;2023-06-14T22:14:43;4.93;;;3.10;;
41883;SDS011;27566;50.930;5.328;2023-06-14T22:17:13;5.22;;;3.15;;
41883;SDS011;27566;50.930;5.328;2023-06-14T22:19:42;7.07;;;3.20;;
41883;SDS011;27566;50.930;5.328;2023-06-14T22:22:08;5.40;;;2.90;;
41883;SDS011;27566;50.930;5.328;2023-06-14T22:24:36;6.00;;;3.28;;
41883;SDS011;27566;50.930;5.328;2023-06-14T22:27:02;7.40;;;4.47;;
41883;SDS011;27566;50.930;5.328;2023-06-14T22:29:30;12.70;;;8.43;;
41883;SDS011;27566;50.930;5.328;2023-06-14T22:31:58;22.05;;;13.77;;
41883;SDS011;27566;50.930;5.328;2023-06-14T22:34:25;16.35;;;10.32;;
41883;SDS011;27566;50.930;5.328;2023-06-14T22:36:51;14.48;;;7.85;;
41883;SDS011;27566;50.930;5.328;2023-06-14T22:39:18;11.63;;;6.22;;
41883;SDS011;27566;50.930;5.328;2023-06-14T22:41:44;6.75;;;4.00;;
41883;SDS011;27566;50.930;5.328;2023-06-14T22:44:12;5.70;;;3.08;;
41883;SDS011;27566;50.930;5.328;2023-06-14T22:46:42;7.18;;;3.53;;
41883;SDS011;27566;50.930;5.328;2023-06-14T22:49:08;8.25;;;3.47;;
41883;SDS011;27566;50.930;5.328;2023-06-14T22:51:35;7.95;;;3.92;;
41883;SDS011;27566;50.930;5.328;2023-06-14T22:54:01;7.15;;;2.80;;
41883;SDS011;27566;50.930;5.328;2023-06-14T22:56:27;6.50;;;3.45;;
41883;SDS011;27566;50.930;5.328;2023-06-14T22:58:53;7.75;;;3.10;;
41883;SDS011;27566;50.930;5.328;2023-06-14T23:01:19;6.47;;;3.33;;
41883;SDS011;27566;50.930;5.328;2023-06-14T23:06:17;7.55;;;4.50;;
41883;SDS011;27566;50.930;5.328;2023-06-14T23:09:01;8.00;;;4.35;;
41883;SDS011;27566;50.930;5.328;2023-06-14T23:11:27;7.47;;;4.75;;
41883;SDS011;27566;50.930;5.328;2023-06-14T23:13:53;13.82;;;7.00;;
41883;SDS011;27566;50.930;5.328;2023-06-14T23:16:19;18.90;;;12.60;;
41883;SDS011;27566;50.930;5.328;2023-06-14T23:18:46;13.13;;;7.70;;
41883;SDS011;27566;50.930;5.328;2023-06-14T23:21:12;8.88;;;5.50;;
41883;SDS011;27566;50.930;5.328;2023-06-14T23:23:41;8.45;;;5.15;;
41883;SDS011;27566;50.930;5.328;2023-06-14T23:26:15;6.93;;;3.92;;
41883;SDS011;27566;50.930;5.328;2023-06-14T23:28:41;8.18;;;4.32;;
41883;SDS011;27566;50.930;5.328;2023-06-14T23:31:07;7.18;;;4.32;;
41883;SDS011;27566;50.930;5.328;2023-06-14T23:33:34;9.57;;;4.22;;
41883;SDS011;27566;50.930;5.328;2023-06-14T23:36:01;14.95;;;6.43;;
41883;SDS011;27566;50.930;5.328;2023-06-14T23:38:29;10.73;;;6.60;;
41883;SDS011;27566;50.930;5.328;2023-06-14T23:40:56;11.07;;;6.75;;
41883;SDS011;27566;50.930;5.328;2023-06-14T23:43:23;13.32;;;7.25;;
41883;SDS011;27566;50.930;5.328;2023-06-14T23:45:49;13.10;;;6.78;;
41883;SDS011;27566;50.930;5.328;2023-06-14T23:48:21;13.40;;;6.68;;
41883;SDS011;27566;50.930;5.328;2023-06-14T23:50:51;7.15;;;5.22;;
41883;SDS011;27566;50.930;5.328;2023-06-14T23:53:20;10.80;;;6.88;;
41883;SDS011;27566;50.930;5.328;2023-06-14T23:55:52;12.73;;;7.70;;
41883;SDS011;27566;50.930;5.328;2023-06-14T23:58:21;9.55;;;5.88;;
